createdAt,value
2023-05-18T00:00:32.840Z,0.00
2023-05-18T00:01:32.811Z,0.00
2023-05-18T00:02:32.877Z,0.00
2023-05-18T00:03:33.032Z,0.00
2023-05-18T00:04:32.841Z,0.00
2023-05-18T00:05:32.755Z,0.00
2023-05-18T00:06:32.742Z,0.00
2023-05-18T00:07:32.767Z,0.00
2023-05-18T00:08:32.719Z,0.00
2023-05-18T00:09:32.700Z,0.00
2023-05-18T00:10:32.788Z,0.00
2023-05-18T00:11:32.696Z,0.00
2023-05-18T00:12:32.696Z,0.00
2023-05-18T00:13:32.656Z,0.00
2023-05-18T00:14:32.661Z,0.00
2023-05-18T00:15:32.689Z,0.00
2023-05-18T00:16:32.730Z,0.00
2023-05-18T00:17:32.607Z,0.00
2023-05-18T00:18:32.583Z,0.00
2023-05-18T00:19:32.637Z,0.00
2023-05-18T00:20:32.566Z,0.00
2023-05-18T00:21:32.740Z,0.00
2023-05-18T00:22:32.554Z,0.00
2023-05-18T00:23:32.517Z,0.00
2023-05-18T00:24:32.845Z,0.00
2023-05-18T00:25:32.533Z,0.00
2023-05-18T00:26:32.594Z,0.00
2023-05-18T00:27:32.551Z,0.00
2023-05-18T00:28:32.476Z,0.00
2023-05-18T00:29:32.456Z,0.00
2023-05-18T00:30:32.459Z,0.00
2023-05-18T00:31:32.519Z,0.00
2023-05-18T00:32:32.436Z,0.00
2023-05-18T00:33:32.404Z,0.00
2023-05-18T00:34:32.392Z,0.00
2023-05-18T00:35:32.606Z,0.00
2023-05-18T00:36:32.358Z,0.00
2023-05-18T00:37:32.350Z,0.00
2023-05-18T00:38:32.435Z,0.00
2023-05-18T00:39:32.375Z,0.00
2023-05-18T00:40:32.348Z,0.00
2023-05-18T00:41:32.283Z,0.00
2023-05-18T00:42:32.305Z,0.00
2023-05-18T00:43:32.322Z,0.00
2023-05-18T00:44:32.323Z,0.00
2023-05-18T00:45:32.548Z,0.00
2023-05-18T00:46:32.313Z,0.00
2023-05-18T00:47:32.217Z,0.00
2023-05-18T00:48:32.327Z,0.00
2023-05-18T00:49:32.231Z,0.00
2023-05-18T00:50:32.285Z,0.00
2023-05-18T00:51:32.158Z,0.00
2023-05-18T00:52:32.172Z,0.00
2023-05-18T00:53:32.164Z,0.00
2023-05-18T00:54:32.149Z,0.00
2023-05-18T00:55:32.380Z,0.00
2023-05-18T00:56:32.181Z,0.00
2023-05-18T00:57:32.191Z,0.00
2023-05-18T00:58:32.122Z,0.00
2023-05-18T00:59:32.124Z,0.00
2023-05-18T01:00:32.111Z,0.00
2023-05-18T01:01:32.072Z,0.00
2023-05-18T01:02:32.158Z,0.00
2023-05-18T01:03:32.161Z,0.00
2023-05-18T01:04:32.040Z,0.00
2023-05-18T01:05:32.269Z,0.00
2023-05-18T01:06:31.984Z,0.00
2023-05-18T01:07:31.968Z,0.00
2023-05-18T01:08:31.971Z,0.00
2023-05-18T01:09:31.932Z,0.00
2023-05-18T01:10:31.918Z,0.00
2023-05-18T01:11:32.034Z,0.00
2023-05-18T01:12:31.922Z,0.00
2023-05-18T01:13:31.906Z,0.00
2023-05-18T01:14:31.893Z,0.00
2023-05-18T01:15:31.920Z,0.00
2023-05-18T01:16:31.912Z,0.00
2023-05-18T01:17:31.921Z,0.00
2023-05-18T01:18:31.849Z,0.00
2023-05-18T01:19:31.808Z,0.00
2023-05-18T01:20:31.806Z,0.00
2023-05-18T01:21:31.809Z,0.00
2023-05-18T01:22:31.810Z,0.00
2023-05-18T01:23:31.755Z,0.00
2023-05-18T01:24:31.740Z,0.00
2023-05-18T01:25:31.818Z,0.00
2023-05-18T01:26:31.830Z,0.00
2023-05-18T01:27:31.727Z,0.00
2023-05-18T01:28:31.691Z,0.00
2023-05-18T01:29:31.669Z,0.00
2023-05-18T01:30:31.681Z,0.00
2023-05-18T01:31:31.781Z,0.00
2023-05-18T01:32:31.642Z,0.00
2023-05-18T01:33:31.623Z,0.00
2023-05-18T01:34:31.634Z,0.00
2023-05-18T01:35:31.828Z,0.00
2023-05-18T01:36:31.740Z,0.00
2023-05-18T01:37:31.589Z,0.00
2023-05-18T01:38:31.543Z,0.00
2023-05-18T01:39:31.563Z,0.00
2023-05-18T01:40:31.565Z,0.00
2023-05-18T01:41:31.574Z,0.00
2023-05-18T01:42:31.524Z,0.00
2023-05-18T01:43:31.518Z,0.00
2023-05-18T01:44:31.482Z,0.00
2023-05-18T01:45:31.638Z,0.00
2023-05-18T01:46:31.512Z,0.00
2023-05-18T01:47:31.525Z,0.00
2023-05-18T01:48:31.431Z,0.00
2023-05-18T01:49:31.434Z,0.00
2023-05-18T01:50:31.452Z,0.00
2023-05-18T01:51:31.390Z,0.00
2023-05-18T01:52:31.378Z,0.00
2023-05-18T01:53:31.365Z,0.00
2023-05-18T01:54:31.387Z,0.00
2023-05-18T01:55:31.647Z,0.00
2023-05-18T01:56:31.413Z,0.00
2023-05-18T01:57:31.302Z,0.00
2023-05-18T01:58:31.302Z,0.00
2023-05-18T01:59:31.321Z,0.00
2023-05-18T02:00:31.277Z,0.00
2023-05-18T02:01:31.298Z,0.00
2023-05-18T02:02:31.352Z,0.00
2023-05-18T02:03:31.387Z,0.00
2023-05-18T02:04:31.238Z,0.00
2023-05-18T02:05:31.372Z,0.00
2023-05-18T02:06:31.191Z,0.00
2023-05-18T02:07:31.174Z,0.00
2023-05-18T02:08:31.221Z,0.00
2023-05-18T02:09:31.226Z,0.00
2023-05-18T02:10:31.149Z,0.00
2023-05-18T02:11:31.119Z,0.00
2023-05-18T02:12:31.124Z,0.00
2023-05-18T02:13:31.128Z,0.00
2023-05-18T02:14:31.100Z,0.00
2023-05-18T02:15:31.405Z,0.00
2023-05-18T02:16:31.102Z,0.00
2023-05-18T02:17:31.066Z,0.00
2023-05-18T02:18:31.090Z,0.00
2023-05-18T02:19:31.059Z,0.00
2023-05-18T02:20:31.035Z,0.00
2023-05-18T02:21:30.994Z,0.00
2023-05-18T02:22:31.023Z,0.00
2023-05-18T02:23:30.996Z,0.00
2023-05-18T02:24:30.963Z,0.00
2023-05-18T02:25:31.223Z,0.00
2023-05-18T02:26:30.935Z,0.00
2023-05-18T02:27:30.971Z,0.00
2023-05-18T02:28:30.902Z,0.00
2023-05-18T02:29:30.893Z,0.00
2023-05-18T02:30:30.894Z,0.00
2023-05-18T02:31:30.895Z,0.00
2023-05-18T02:32:30.902Z,0.00
2023-05-18T02:33:30.879Z,0.00
2023-05-18T02:34:30.834Z,0.00
2023-05-18T02:35:31.106Z,0.00
2023-05-18T02:36:30.807Z,0.00
2023-05-18T02:37:30.817Z,0.00
2023-05-18T02:38:30.993Z,0.00
2023-05-18T02:39:30.872Z,0.00
2023-05-18T02:40:30.766Z,0.00
2023-05-18T02:41:30.797Z,0.00
2023-05-18T02:42:30.758Z,0.00
2023-05-18T02:43:35.060Z,0.00
2023-05-18T02:44:30.807Z,0.00
2023-05-18T02:45:31.163Z,0.00
2023-05-18T02:46:30.749Z,0.00
2023-05-18T02:47:30.813Z,0.00
2023-05-18T02:48:30.737Z,0.00
2023-05-18T02:49:30.637Z,0.00
2023-05-18T02:50:30.808Z,0.00
2023-05-18T02:51:30.656Z,0.00
2023-05-18T02:52:30.582Z,0.00
2023-05-18T02:53:30.584Z,0.00
2023-05-18T02:54:30.716Z,0.00
2023-05-18T02:55:30.755Z,0.00
2023-05-18T02:56:30.595Z,0.00
2023-05-18T02:57:30.511Z,0.00
2023-05-18T02:58:30.459Z,0.00
2023-05-18T02:59:30.449Z,0.00
2023-05-18T03:00:30.477Z,0.00
2023-05-18T03:01:30.443Z,0.00
2023-05-18T03:02:30.664Z,0.00
2023-05-18T03:03:30.500Z,0.00
2023-05-18T03:04:30.559Z,0.00
2023-05-18T03:05:30.723Z,0.00
2023-05-18T03:06:30.471Z,0.00
2023-05-18T03:07:30.440Z,0.00
2023-05-18T03:08:30.632Z,0.00
2023-05-18T03:09:30.347Z,0.00
2023-05-18T03:10:30.554Z,0.00
2023-05-18T03:11:30.362Z,0.00
2023-05-18T03:12:30.413Z,0.00
2023-05-18T03:13:30.382Z,0.00
2023-05-18T03:14:30.343Z,0.00
2023-05-18T03:15:30.656Z,0.00
2023-05-18T03:16:30.296Z,0.00
2023-05-18T03:17:30.245Z,0.00
2023-05-18T03:18:30.218Z,0.00
2023-05-18T03:19:30.237Z,0.00
2023-05-18T03:20:30.193Z,0.00
2023-05-18T03:21:30.292Z,0.00
2023-05-18T03:22:30.178Z,0.00
2023-05-18T03:23:30.200Z,0.00
2023-05-18T03:24:30.149Z,0.00
2023-05-18T03:25:30.266Z,0.00
2023-05-18T03:26:30.151Z,0.00
2023-05-18T03:27:30.089Z,0.00
2023-05-18T03:28:30.125Z,0.00
2023-05-18T03:29:31.615Z,0.00
2023-05-18T03:30:30.068Z,0.00
2023-05-18T03:31:30.095Z,0.00
2023-05-18T03:32:30.083Z,0.00
2023-05-18T03:33:30.057Z,0.00
2023-05-18T03:34:30.010Z,5.62
2023-05-18T03:35:30.290Z,5.62
2023-05-18T03:36:29.984Z,5.62
2023-05-18T03:37:30.020Z,5.62
2023-05-18T03:38:29.991Z,5.62
2023-05-18T03:39:29.992Z,5.62
2023-05-18T03:40:29.942Z,5.62
2023-05-18T03:41:29.971Z,5.62
2023-05-18T03:42:30.047Z,5.62
2023-05-18T03:43:29.884Z,5.62
2023-05-18T03:44:29.893Z,5.62
2023-05-18T03:45:30.029Z,5.62
2023-05-18T03:46:29.927Z,5.62
2023-05-18T03:47:29.921Z,11.25
2023-05-18T03:48:29.828Z,11.25
2023-05-18T03:49:29.847Z,11.25
2023-05-18T03:50:29.813Z,11.25
2023-05-18T03:51:29.816Z,11.25
2023-05-18T03:52:29.814Z,11.25
2023-05-18T03:53:29.778Z,11.25
2023-05-18T03:54:29.764Z,11.25
2023-05-18T03:55:29.952Z,11.25
2023-05-18T03:56:29.768Z,16.88
2023-05-18T03:57:29.702Z,16.88
2023-05-18T03:58:29.694Z,16.88
2023-05-18T03:59:29.704Z,16.88
2023-05-18T04:00:29.688Z,16.88
2023-05-18T04:01:29.686Z,16.88
2023-05-18T04:02:29.885Z,16.88
2023-05-18T04:03:29.710Z,16.88
2023-05-18T04:04:29.693Z,16.88
2023-05-18T04:05:29.698Z,22.50
2023-05-18T04:06:29.671Z,22.50
2023-05-18T04:07:29.607Z,22.50
2023-05-18T04:08:29.571Z,22.50
2023-05-18T04:09:29.608Z,22.50
2023-05-18T04:10:29.637Z,22.50
2023-05-18T04:11:29.548Z,22.50
2023-05-18T04:12:29.544Z,22.50
2023-05-18T04:13:29.542Z,22.50
2023-05-18T04:14:29.535Z,22.50
2023-05-18T04:15:29.718Z,22.50
2023-05-18T04:16:29.521Z,28.12
2023-05-18T04:17:29.478Z,28.12
2023-05-18T04:18:29.478Z,28.12
2023-05-18T04:19:29.579Z,28.12
2023-05-18T04:20:29.517Z,28.12
2023-05-18T04:21:29.400Z,28.12
2023-05-18T04:22:29.406Z,28.12
2023-05-18T04:23:29.373Z,28.12
2023-05-18T04:24:29.399Z,28.12
2023-05-18T04:25:29.541Z,28.12
2023-05-18T04:26:29.364Z,33.75
2023-05-18T04:27:29.326Z,33.75
2023-05-18T04:28:29.306Z,33.75
2023-05-18T04:29:29.405Z,33.75
2023-05-18T04:30:29.314Z,33.75
2023-05-18T04:31:29.289Z,33.75
2023-05-18T04:32:29.436Z,33.75
2023-05-18T04:33:29.420Z,33.75
2023-05-18T04:34:29.638Z,33.75
2023-05-18T04:35:30.637Z,33.75
2023-05-18T04:36:29.431Z,33.75
2023-05-18T04:37:29.265Z,33.75
2023-05-18T04:38:29.268Z,39.38
2023-05-18T04:39:29.167Z,39.38
2023-05-18T04:40:29.253Z,39.38
2023-05-18T04:41:29.176Z,39.38
2023-05-18T04:42:29.174Z,39.38
2023-05-18T04:43:29.148Z,39.38
2023-05-18T04:44:29.125Z,39.38
2023-05-18T04:45:29.260Z,39.38
2023-05-18T04:46:29.238Z,39.38
2023-05-18T04:47:29.097Z,39.38
2023-05-18T04:48:29.111Z,39.38
2023-05-18T04:49:29.053Z,39.38
2023-05-18T04:50:29.058Z,39.38
2023-05-18T04:51:29.050Z,45.00
2023-05-18T04:52:29.047Z,45.00
2023-05-18T04:53:29.047Z,45.00
2023-05-18T04:54:29.001Z,45.00
2023-05-18T04:55:29.653Z,45.00
2023-05-18T04:56:28.961Z,45.00
2023-05-18T04:57:28.953Z,45.00
2023-05-18T04:58:30.498Z,45.00
2023-05-18T04:59:28.913Z,45.00
2023-05-18T05:00:28.933Z,45.00
2023-05-18T05:01:28.986Z,45.00
2023-05-18T05:02:28.986Z,45.00
2023-05-18T05:03:29.219Z,45.00
2023-05-18T05:04:28.880Z,45.00
2023-05-18T05:05:28.925Z,45.00
2023-05-18T05:06:28.838Z,50.62
2023-05-18T05:07:28.851Z,50.62
2023-05-18T05:08:28.819Z,50.62
2023-05-18T05:09:28.781Z,50.62
2023-05-18T05:10:28.811Z,50.62
2023-05-18T05:11:28.761Z,50.62
2023-05-18T05:12:28.759Z,50.62
2023-05-18T05:13:29.530Z,50.62
2023-05-18T05:14:28.792Z,50.62
2023-05-18T05:15:28.826Z,50.62
2023-05-18T05:16:28.799Z,50.62
2023-05-18T05:17:29.005Z,50.62
2023-05-18T05:18:28.671Z,50.62
2023-05-18T05:19:28.768Z,50.62
2023-05-18T05:20:28.685Z,50.62
2023-05-18T05:21:28.873Z,50.62
2023-05-18T05:22:28.714Z,50.62
2023-05-18T05:23:28.635Z,56.25
2023-05-18T05:24:28.583Z,56.25
2023-05-18T05:25:28.961Z,56.25
2023-05-18T05:26:28.613Z,56.25
2023-05-18T05:27:28.553Z,56.25
2023-05-18T05:28:28.539Z,56.25
2023-05-18T05:29:28.519Z,56.25
2023-05-18T05:30:28.549Z,56.25
2023-05-18T05:31:28.646Z,56.25
2023-05-18T05:32:28.544Z,56.25
2023-05-18T05:33:28.482Z,56.25
2023-05-18T05:34:28.452Z,56.25
2023-05-18T05:35:29.930Z,56.25
2023-05-18T05:36:28.430Z,56.25
2023-05-18T05:37:28.488Z,56.25
2023-05-18T05:38:28.418Z,56.25
2023-05-18T05:39:28.387Z,56.25
2023-05-18T05:40:28.500Z,56.25
2023-05-18T05:41:28.367Z,61.88
2023-05-18T05:42:28.351Z,61.88
2023-05-18T05:43:28.412Z,61.88
2023-05-18T05:44:28.390Z,61.88
2023-05-18T05:45:28.561Z,61.88
2023-05-18T05:46:28.351Z,61.88
2023-05-18T05:47:28.350Z,61.88
2023-05-18T05:48:28.347Z,61.88
2023-05-18T05:49:28.309Z,61.88
2023-05-18T05:50:28.256Z,61.88
2023-05-18T05:51:28.236Z,61.88
2023-05-18T05:52:28.330Z,61.88
2023-05-18T05:53:28.222Z,61.88
2023-05-18T05:54:28.228Z,61.88
2023-05-18T05:55:28.220Z,61.88
2023-05-18T05:56:28.343Z,61.88
2023-05-18T05:57:28.160Z,61.88
2023-05-18T05:58:28.177Z,61.88
2023-05-18T05:59:28.168Z,61.88
2023-05-18T06:00:28.144Z,61.88
2023-05-18T06:01:28.130Z,61.88
2023-05-18T06:02:28.211Z,61.88
2023-05-18T06:03:28.240Z,61.88
2023-05-18T06:04:28.162Z,61.88
2023-05-18T06:05:28.258Z,61.88
2023-05-18T06:06:28.132Z,61.88
2023-05-18T06:07:28.068Z,61.88
2023-05-18T06:08:28.051Z,61.88
2023-05-18T06:09:28.000Z,61.88
2023-05-18T06:10:28.039Z,67.50
2023-05-18T06:11:28.117Z,67.50
2023-05-18T06:12:28.116Z,67.50
2023-05-18T06:13:27.976Z,67.50
2023-05-18T06:14:27.960Z,67.50
2023-05-18T06:15:28.146Z,67.50
2023-05-18T06:16:28.123Z,67.50
2023-05-18T06:17:28.012Z,67.50
2023-05-18T06:18:27.935Z,67.50
2023-05-18T06:19:27.928Z,73.12
2023-05-18T06:20:27.885Z,73.12
2023-05-18T06:21:27.870Z,73.12
2023-05-18T06:22:27.989Z,73.12
2023-05-18T06:23:27.829Z,73.12
2023-05-18T06:24:29.766Z,73.12
2023-05-18T06:25:27.821Z,73.12
2023-05-18T06:26:27.814Z,78.75
2023-05-18T06:27:27.927Z,78.75
2023-05-18T06:28:27.882Z,78.75
2023-05-18T06:29:27.821Z,78.75
2023-05-18T06:30:28.554Z,73.12
2023-05-18T06:31:30.069Z,73.12
2023-05-18T06:32:27.947Z,78.75
2023-05-18T06:33:27.827Z,78.75
2023-05-18T06:34:27.669Z,78.75
2023-05-18T06:35:27.745Z,78.75
2023-05-18T06:36:27.700Z,78.75
2023-05-18T06:37:27.659Z,78.75
2023-05-18T06:38:27.628Z,84.38
2023-05-18T06:39:27.628Z,84.38
2023-05-18T06:40:27.606Z,84.38
2023-05-18T06:41:27.623Z,84.38
2023-05-18T06:42:28.370Z,90.00
2023-05-18T06:43:27.661Z,90.00
2023-05-18T06:44:28.034Z,90.00
2023-05-18T06:45:27.544Z,90.00
2023-05-18T06:46:27.661Z,90.00
2023-05-18T06:47:27.564Z,90.00
2023-05-18T06:48:27.505Z,90.00
2023-05-18T06:49:27.548Z,95.62
2023-05-18T06:50:27.517Z,95.62
2023-05-18T06:51:27.580Z,95.62
2023-05-18T06:52:27.431Z,101.25
2023-05-18T06:53:27.447Z,101.25
2023-05-18T06:54:27.445Z,101.25
2023-05-18T06:55:27.489Z,101.25
2023-05-18T06:56:27.437Z,101.25
2023-05-18T06:57:27.398Z,101.25
2023-05-18T06:58:27.360Z,106.88
2023-05-18T06:59:27.492Z,106.88
2023-05-18T07:00:27.382Z,112.50
2023-05-18T07:01:27.537Z,112.50
2023-05-18T07:02:27.417Z,112.50
2023-05-18T07:03:27.309Z,112.50
2023-05-18T07:04:27.324Z,112.50
2023-05-18T07:05:27.346Z,118.12
2023-05-18T07:06:27.278Z,118.12
2023-05-18T07:07:27.253Z,123.75
2023-05-18T07:08:27.227Z,123.75
2023-05-18T07:09:27.269Z,129.38
2023-05-18T07:10:27.292Z,129.38
2023-05-18T07:11:29.503Z,129.38
2023-05-18T07:12:27.217Z,129.38
2023-05-18T07:13:27.196Z,135.00
2023-05-18T07:14:27.214Z,129.38
2023-05-18T07:15:27.183Z,135.00
2023-05-18T07:16:27.243Z,135.00
2023-05-18T07:17:27.163Z,135.00
2023-05-18T07:18:27.141Z,140.62
2023-05-18T07:19:27.235Z,140.62
2023-05-18T07:20:27.107Z,140.62
2023-05-18T07:21:27.065Z,146.25
2023-05-18T07:22:27.095Z,146.25
2023-05-18T07:23:27.096Z,146.25
2023-05-18T07:24:27.020Z,146.25
2023-05-18T07:25:27.003Z,146.25
2023-05-18T07:26:27.039Z,146.25
2023-05-18T07:27:27.023Z,146.25
2023-05-18T07:28:27.000Z,151.88
2023-05-18T07:29:26.956Z,151.88
2023-05-18T07:30:27.037Z,151.88
2023-05-18T07:31:27.268Z,157.50
2023-05-18T07:32:26.949Z,157.50
2023-05-18T07:33:27.301Z,157.50
2023-05-18T07:34:26.908Z,157.50
2023-05-18T07:35:26.957Z,157.50
2023-05-18T07:36:26.894Z,157.50
2023-05-18T07:37:27.017Z,163.12
2023-05-18T07:38:26.837Z,163.12
2023-05-18T07:39:26.829Z,163.12
2023-05-18T07:40:27.057Z,163.12
2023-05-18T07:41:26.817Z,163.12
2023-05-18T07:42:26.892Z,163.12
2023-05-18T07:43:27.020Z,163.12
2023-05-18T07:44:26.779Z,168.75
2023-05-18T07:45:26.754Z,163.12
2023-05-18T07:46:26.874Z,163.12
2023-05-18T07:47:26.825Z,168.75
2023-05-18T07:48:26.692Z,163.12
2023-05-18T07:49:27.659Z,168.75
2023-05-18T07:50:26.729Z,168.75
2023-05-18T07:51:26.704Z,168.75
2023-05-18T07:52:26.692Z,168.75
2023-05-18T07:53:26.666Z,168.75
2023-05-18T07:54:26.629Z,168.75
2023-05-18T07:55:26.631Z,168.75
2023-05-18T07:56:26.612Z,174.38
2023-05-18T07:57:26.597Z,174.38
2023-05-18T07:58:26.569Z,174.38
2023-05-18T07:59:26.578Z,174.38
2023-05-18T08:00:26.580Z,174.38
2023-05-18T08:01:26.943Z,174.38
2023-05-18T08:02:26.654Z,174.38
2023-05-18T08:03:26.613Z,174.38
2023-05-18T08:04:26.565Z,180.00
2023-05-18T08:05:26.529Z,174.38
2023-05-18T08:06:26.562Z,174.38
2023-05-18T08:07:26.486Z,174.38
2023-05-18T08:08:26.498Z,174.38
2023-05-18T08:09:26.482Z,180.00
2023-05-18T08:10:26.450Z,174.38
2023-05-18T08:11:26.415Z,180.00
2023-05-18T08:12:26.454Z,180.00
2023-05-18T08:13:26.371Z,180.00
2023-05-18T08:14:26.401Z,180.00
2023-05-18T08:15:26.375Z,180.00
2023-05-18T08:16:26.337Z,180.00
2023-05-18T08:17:26.369Z,180.00
2023-05-18T08:18:27.158Z,180.00
2023-05-18T08:19:26.438Z,185.62
2023-05-18T08:20:26.286Z,185.62
2023-05-18T08:21:26.300Z,185.62
2023-05-18T08:22:26.257Z,185.62
2023-05-18T08:23:26.240Z,185.62
2023-05-18T08:24:26.269Z,185.62
2023-05-18T08:25:26.239Z,185.62
2023-05-18T08:26:26.197Z,185.62
2023-05-18T08:27:26.234Z,185.62
2023-05-18T08:28:26.193Z,191.25
2023-05-18T08:29:26.195Z,191.25
2023-05-18T08:30:26.171Z,191.25
2023-05-18T08:31:26.209Z,191.25
2023-05-18T08:32:26.180Z,191.25
2023-05-18T08:33:26.339Z,191.25
2023-05-18T08:34:26.140Z,191.25
2023-05-18T08:35:26.081Z,191.25
2023-05-18T08:36:26.131Z,191.25
2023-05-18T08:37:26.062Z,191.25
2023-05-18T08:38:26.069Z,191.25
2023-05-18T08:39:26.133Z,191.25
2023-05-18T08:40:26.030Z,191.25
2023-05-18T08:41:25.986Z,191.25
2023-05-18T08:42:31.793Z,191.25
2023-05-18T08:43:28.381Z,191.25
2023-05-18T08:44:25.997Z,191.25
2023-05-18T08:45:25.962Z,191.25
2023-05-18T08:46:26.896Z,196.88
2023-05-18T08:47:26.080Z,191.25
2023-05-18T08:48:28.029Z,202.50
2023-05-18T08:49:25.895Z,202.50
2023-05-18T08:50:26.034Z,202.50
2023-05-18T08:51:25.889Z,202.50
2023-05-18T08:52:25.885Z,202.50
2023-05-18T08:53:25.879Z,196.88
2023-05-18T08:54:25.880Z,202.50
2023-05-18T08:55:25.853Z,202.50
2023-05-18T08:56:25.843Z,202.50
2023-05-18T08:57:25.838Z,202.50
2023-05-18T08:58:25.782Z,202.50
2023-05-18T08:59:25.790Z,202.50
2023-05-18T09:00:25.867Z,208.12
2023-05-18T09:01:25.776Z,208.12
2023-05-18T09:02:25.741Z,208.12
2023-05-18T09:03:25.716Z,208.12
2023-05-18T09:04:25.769Z,208.12
2023-05-18T09:05:25.830Z,208.12
2023-05-18T09:06:25.707Z,208.12
2023-05-18T09:07:25.691Z,208.12
2023-05-18T09:08:25.661Z,208.12
2023-05-18T09:09:25.715Z,208.12
2023-05-18T09:10:25.796Z,208.12
2023-05-18T09:11:25.656Z,208.12
2023-05-18T09:12:25.641Z,208.12
2023-05-18T09:13:25.591Z,213.75
2023-05-18T09:14:25.685Z,213.75
2023-05-18T09:15:25.631Z,219.38
2023-05-18T09:16:25.615Z,219.38
2023-05-18T09:17:25.603Z,219.38
2023-05-18T09:18:27.594Z,225.00
2023-05-18T09:19:25.533Z,225.00
2023-05-18T09:20:25.514Z,225.00
2023-05-18T09:21:26.293Z,219.38
2023-05-18T09:22:25.462Z,219.38
2023-05-18T09:23:25.446Z,219.38
2023-05-18T09:24:25.453Z,219.38
2023-05-18T09:25:25.472Z,219.38
2023-05-18T09:26:25.399Z,225.00
2023-05-18T09:27:25.410Z,225.00
2023-05-18T09:28:25.378Z,236.25
2023-05-18T09:29:25.436Z,213.75
2023-05-18T09:30:25.404Z,241.88
2023-05-18T09:31:25.358Z,241.88
2023-05-18T09:32:25.451Z,241.88
2023-05-18T09:33:25.370Z,241.88
2023-05-18T09:34:25.335Z,157.50
2023-05-18T09:35:25.507Z,230.62
2023-05-18T09:36:25.324Z,225.00
2023-05-18T09:37:25.293Z,230.62
2023-05-18T09:38:25.359Z,230.62
2023-05-18T09:39:25.627Z,236.25
2023-05-18T09:40:25.236Z,236.25
2023-05-18T09:41:25.362Z,247.50
2023-05-18T09:42:25.225Z,247.50
2023-05-18T09:43:25.229Z,196.88
2023-05-18T09:44:25.223Z,151.88
2023-05-18T09:45:25.166Z,241.88
2023-05-18T09:46:25.218Z,247.50
2023-05-18T09:47:25.290Z,253.12
2023-05-18T09:48:25.554Z,253.12
2023-05-18T09:49:25.101Z,241.88
2023-05-18T09:50:25.988Z,135.00
2023-05-18T09:51:25.933Z,146.25
2023-05-18T09:52:25.171Z,281.25
2023-05-18T09:53:25.120Z,286.88
2023-05-18T09:54:25.189Z,286.88
2023-05-18T09:55:25.188Z,286.88
2023-05-18T09:56:25.070Z,292.50
2023-05-18T09:57:25.059Z,298.12
2023-05-18T09:58:25.048Z,303.75
2023-05-18T09:59:25.104Z,303.75
2023-05-18T10:00:25.723Z,303.75
2023-05-18T10:01:25.006Z,303.75
2023-05-18T10:02:24.994Z,303.75
2023-05-18T10:03:25.316Z,315.00
2023-05-18T10:04:24.980Z,298.12
2023-05-18T10:05:24.898Z,258.75
2023-05-18T10:06:24.890Z,320.62
2023-05-18T10:07:28.357Z,258.75
2023-05-18T10:08:24.947Z,331.88
2023-05-18T10:09:24.861Z,337.50
2023-05-18T10:10:24.897Z,202.50
2023-05-18T10:11:24.855Z,202.50
2023-05-18T10:12:24.915Z,241.88
2023-05-18T10:13:24.809Z,337.50
2023-05-18T10:14:24.814Z,258.75
2023-05-18T10:15:24.782Z,191.25
2023-05-18T10:16:24.830Z,196.88
2023-05-18T10:17:24.800Z,331.88
2023-05-18T10:18:24.789Z,326.25
2023-05-18T10:19:24.785Z,331.88
2023-05-18T10:20:24.901Z,331.88
2023-05-18T10:21:24.751Z,331.88
2023-05-18T10:22:24.681Z,315.00
2023-05-18T10:23:24.669Z,258.75
2023-05-18T10:24:24.710Z,185.62
2023-05-18T10:25:24.733Z,185.62
2023-05-18T10:26:24.684Z,180.00
2023-05-18T10:27:24.613Z,185.62
2023-05-18T10:28:25.541Z,225.00
2023-05-18T10:29:24.582Z,208.12
2023-05-18T10:30:24.620Z,270.00
2023-05-18T10:31:24.736Z,202.50
2023-05-18T10:32:29.007Z,191.25
2023-05-18T10:33:29.747Z,185.62
2023-05-18T10:34:25.540Z,180.00
2023-05-18T10:35:24.618Z,168.75
2023-05-18T10:36:24.511Z,174.38
2023-05-18T10:37:27.452Z,180.00
2023-05-18T10:38:24.462Z,185.62
2023-05-18T10:39:24.563Z,185.62
2023-05-18T10:40:24.525Z,191.25
2023-05-18T10:41:24.527Z,202.50
2023-05-18T10:42:24.450Z,230.62
2023-05-18T10:43:24.476Z,354.38
2023-05-18T10:44:24.425Z,258.75
2023-05-18T10:45:24.457Z,196.88
2023-05-18T10:46:24.496Z,196.88
2023-05-18T10:47:24.456Z,196.88
2023-05-18T10:48:24.379Z,236.25
2023-05-18T10:49:24.376Z,196.88
2023-05-18T10:50:24.366Z,185.62
2023-05-18T10:51:24.440Z,180.00
2023-05-18T10:52:24.357Z,174.38
2023-05-18T10:53:24.370Z,174.38
2023-05-18T10:54:24.298Z,180.00
2023-05-18T10:55:24.304Z,180.00
2023-05-18T10:56:24.429Z,191.25
2023-05-18T10:57:24.205Z,185.62
2023-05-18T10:58:24.227Z,180.00
2023-05-18T10:59:24.258Z,174.38
2023-05-18T11:00:24.191Z,163.12
2023-05-18T11:01:24.312Z,157.50
2023-05-18T11:02:24.366Z,151.88
2023-05-18T11:03:24.539Z,151.88
2023-05-18T11:04:24.139Z,292.50
2023-05-18T11:05:24.226Z,151.88
2023-05-18T11:06:24.142Z,157.50
2023-05-18T11:07:24.195Z,151.88
2023-05-18T11:08:24.307Z,157.50
2023-05-18T11:09:24.208Z,185.62
2023-05-18T11:10:24.052Z,185.62
2023-05-18T11:11:24.074Z,241.88
2023-05-18T11:12:24.130Z,292.50
2023-05-18T11:13:24.277Z,331.88
2023-05-18T11:14:24.000Z,354.38
2023-05-18T11:15:24.933Z,343.12
2023-05-18T11:16:24.045Z,337.50
2023-05-18T11:17:23.969Z,331.88
2023-05-18T11:18:23.941Z,236.25
2023-05-18T11:19:23.961Z,286.88
2023-05-18T11:20:24.064Z,208.12
2023-05-18T11:21:23.939Z,191.25
2023-05-18T11:22:24.176Z,157.50
2023-05-18T11:23:24.017Z,157.50
2023-05-18T11:24:23.858Z,146.25
2023-05-18T11:25:23.854Z,157.50
2023-05-18T11:26:24.721Z,163.12
2023-05-18T11:27:23.836Z,146.25
2023-05-18T11:28:23.802Z,140.62
2023-05-18T11:29:23.882Z,146.25
2023-05-18T11:30:23.788Z,140.62
2023-05-18T11:31:23.789Z,275.62
2023-05-18T11:32:29.746Z,247.50
2023-05-18T11:33:24.884Z,264.38
2023-05-18T11:34:23.815Z,270.00
2023-05-18T11:35:23.705Z,270.00
2023-05-18T11:36:23.809Z,140.62
2023-05-18T11:37:23.692Z,123.75
2023-05-18T11:38:23.684Z,129.38
2023-05-18T11:39:23.682Z,129.38
2023-05-18T11:40:23.769Z,135.00
2023-05-18T11:41:23.763Z,135.00
2023-05-18T11:42:23.767Z,258.75
2023-05-18T11:43:23.660Z,264.38
2023-05-18T11:44:23.626Z,253.12
2023-05-18T11:45:23.616Z,258.75
2023-05-18T11:46:23.615Z,264.38
2023-05-18T11:47:23.550Z,275.62
2023-05-18T11:48:23.739Z,196.88
2023-05-18T11:49:23.564Z,140.62
2023-05-18T11:50:23.723Z,140.62
2023-05-18T11:51:23.544Z,146.25
2023-05-18T11:52:23.528Z,281.25
2023-05-18T11:53:23.478Z,286.88
2023-05-18T11:54:23.836Z,286.88
2023-05-18T11:55:23.529Z,292.50
2023-05-18T11:56:24.291Z,298.12
2023-05-18T11:57:23.538Z,196.88
2023-05-18T11:58:23.519Z,185.62
2023-05-18T11:59:23.449Z,180.00
2023-05-18T12:00:23.419Z,185.62
2023-05-18T12:01:23.398Z,174.38
2023-05-18T12:02:23.434Z,185.62
2023-05-18T12:03:23.406Z,174.38
2023-05-18T12:04:23.502Z,264.38
2023-05-18T12:05:23.364Z,331.88
2023-05-18T12:06:23.420Z,191.25
2023-05-18T12:07:23.326Z,202.50
2023-05-18T12:08:23.308Z,185.62
2023-05-18T12:09:23.350Z,174.38
2023-05-18T12:10:23.434Z,163.12
2023-05-18T12:11:23.236Z,163.12
2023-05-18T12:12:23.239Z,208.12
2023-05-18T12:13:23.370Z,157.50
2023-05-18T12:14:23.240Z,236.25
2023-05-18T12:15:23.247Z,168.75
2023-05-18T12:16:23.243Z,157.50
2023-05-18T12:17:23.175Z,258.75
2023-05-18T12:18:23.217Z,258.75
2023-05-18T12:19:23.306Z,264.38
2023-05-18T12:20:23.127Z,264.38
2023-05-18T12:21:23.117Z,264.38
2023-05-18T12:22:23.105Z,253.12
2023-05-18T12:23:23.123Z,258.75
2023-05-18T12:24:23.067Z,270.00
2023-05-18T12:25:23.101Z,270.00
2023-05-18T12:26:23.114Z,281.25
2023-05-18T12:27:23.222Z,298.12
2023-05-18T12:28:23.147Z,208.12
2023-05-18T12:29:23.018Z,320.62
2023-05-18T12:30:23.042Z,331.88
2023-05-18T12:31:23.062Z,185.62
2023-05-18T12:32:23.735Z,191.25
2023-05-18T12:33:22.961Z,191.25
2023-05-18T12:34:22.994Z,191.25
2023-05-18T12:35:22.919Z,168.75
2023-05-18T12:36:22.916Z,174.38
2023-05-18T12:37:30.740Z,157.50
2023-05-18T12:38:23.889Z,140.62
2023-05-18T12:39:22.884Z,135.00
2023-05-18T12:40:22.886Z,151.88
2023-05-18T12:41:22.903Z,208.12
2023-05-18T12:42:22.862Z,151.88
2023-05-18T12:43:22.820Z,213.75
2023-05-18T12:44:22.807Z,213.75
2023-05-18T12:45:22.855Z,270.00
2023-05-18T12:46:22.935Z,264.38
2023-05-18T12:47:22.784Z,168.75
2023-05-18T12:48:22.808Z,140.62